sensor_id;sensor_type;location;lat;lon;timestamp;P1;durP1;ratioP1;P2;durP2;ratioP2
6195;SDS011;3131;42.630;23.382;2023-04-08T00:01:59;22.03;;;12.50;;
6195;SDS011;3131;42.630;23.382;2023-04-08T00:04:26;19.93;;;11.80;;
6195;SDS011;3131;42.630;23.382;2023-04-08T00:06:54;19.07;;;12.07;;
6195;SDS011;3131;42.630;23.382;2023-04-08T00:09:22;14.57;;;9.57;;
6195;SDS011;3131;42.630;23.382;2023-04-08T00:11:50;20.80;;;10.90;;
6195;SDS011;3131;42.630;23.382;2023-04-08T00:14:18;19.73;;;10.03;;
6195;SDS011;3131;42.630;23.382;2023-04-08T00:16:47;19.00;;;10.57;;
6195;SDS011;3131;42.630;23.382;2023-04-08T00:19:14;17.33;;;10.60;;
6195;SDS011;3131;42.630;23.382;2023-04-08T00:21:42;22.93;;;11.70;;
6195;SDS011;3131;42.630;23.382;2023-04-08T00:24:10;15.93;;;10.07;;
6195;SDS011;3131;42.630;23.382;2023-04-08T00:26:37;15.03;;;9.23;;
6195;SDS011;3131;42.630;23.382;2023-04-08T00:29:05;13.57;;;9.10;;
6195;SDS011;3131;42.630;23.382;2023-04-08T00:31:33;14.43;;;7.60;;
6195;SDS011;3131;42.630;23.382;2023-04-08T00:34:02;11.80;;;7.10;;
6195;SDS011;3131;42.630;23.382;2023-04-08T00:36:30;13.30;;;8.47;;
6195;SDS011;3131;42.630;23.382;2023-04-08T00:38:57;13.93;;;8.67;;
6195;SDS011;3131;42.630;23.382;2023-04-08T00:41:25;18.03;;;9.00;;
6195;SDS011;3131;42.630;23.382;2023-04-08T00:43:53;17.13;;;9.33;;
6195;SDS011;3131;42.630;23.382;2023-04-08T00:46:20;20.83;;;10.63;;
6195;SDS011;3131;42.630;23.382;2023-04-08T00:48:48;28.97;;;14.20;;
6195;SDS011;3131;42.630;23.382;2023-04-08T00:51:16;23.77;;;16.17;;
6195;SDS011;3131;42.630;23.382;2023-04-08T00:53:44;28.10;;;17.53;;
6195;SDS011;3131;42.630;23.382;2023-04-08T00:56:12;34.53;;;15.73;;
6195;SDS011;3131;42.630;23.382;2023-04-08T00:58:40;30.33;;;16.43;;
6195;SDS011;3131;42.630;23.382;2023-04-08T01:01:09;28.03;;;15.87;;
6195;SDS011;3131;42.630;23.382;2023-04-08T01:03:41;30.13;;;14.93;;
6195;SDS011;3131;42.630;23.382;2023-04-08T01:06:09;25.33;;;14.47;;
6195;SDS011;3131;42.630;23.382;2023-04-08T01:08:37;22.40;;;13.60;;
6195;SDS011;3131;42.630;23.382;2023-04-08T01:11:07;23.33;;;12.47;;
6195;SDS011;3131;42.630;23.382;2023-04-08T01:13:36;19.53;;;12.40;;
6195;SDS011;3131;42.630;23.382;2023-04-08T01:16:05;21.30;;;12.00;;
6195;SDS011;3131;42.630;23.382;2023-04-08T01:18:33;21.93;;;11.07;;
6195;SDS011;3131;42.630;23.382;2023-04-08T01:21:01;14.07;;;8.93;;
6195;SDS011;3131;42.630;23.382;2023-04-08T01:23:31;17.17;;;9.80;;
6195;SDS011;3131;42.630;23.382;2023-04-08T01:25:59;15.20;;;10.27;;
6195;SDS011;3131;42.630;23.382;2023-04-08T01:28:27;13.17;;;9.63;;
6195;SDS011;3131;42.630;23.382;2023-04-08T01:30:56;19.50;;;10.57;;
6195;SDS011;3131;42.630;23.382;2023-04-08T01:33:24;18.30;;;10.10;;
6195;SDS011;3131;42.630;23.382;2023-04-08T01:35:52;17.27;;;9.50;;
6195;SDS011;3131;42.630;23.382;2023-04-08T01:38:20;17.97;;;10.70;;
6195;SDS011;3131;42.630;23.382;2023-04-08T01:40:49;19.10;;;11.93;;
6195;SDS011;3131;42.630;23.382;2023-04-08T01:43:18;20.63;;;11.83;;
6195;SDS011;3131;42.630;23.382;2023-04-08T01:45:46;16.93;;;9.50;;
6195;SDS011;3131;42.630;23.382;2023-04-08T01:48:14;18.90;;;10.27;;
6195;SDS011;3131;42.630;23.382;2023-04-08T01:50:44;19.47;;;11.60;;
6195;SDS011;3131;42.630;23.382;2023-04-08T01:53:12;18.20;;;10.43;;
6195;SDS011;3131;42.630;23.382;2023-04-08T01:55:41;13.10;;;9.27;;
6195;SDS011;3131;42.630;23.382;2023-04-08T01:58:10;22.00;;;11.63;;
6195;SDS011;3131;42.630;23.382;2023-04-08T02:00:38;10.37;;;6.77;;
6195;SDS011;3131;42.630;23.382;2023-04-08T02:03:08;14.20;;;9.43;;
6195;SDS011;3131;42.630;23.382;2023-04-08T02:05:37;9.63;;;7.53;;
6195;SDS011;3131;42.630;23.382;2023-04-08T02:08:05;16.80;;;9.50;;
6195;SDS011;3131;42.630;23.382;2023-04-08T02:10:33;14.47;;;9.43;;
6195;SDS011;3131;42.630;23.382;2023-04-08T02:13:01;11.63;;;8.07;;
6195;SDS011;3131;42.630;23.382;2023-04-08T02:15:29;14.47;;;8.13;;
6195;SDS011;3131;42.630;23.382;2023-04-08T02:17:59;12.37;;;8.67;;
6195;SDS011;3131;42.630;23.382;2023-04-08T02:20:30;14.20;;;9.37;;
6195;SDS011;3131;42.630;23.382;2023-04-08T02:22:59;12.47;;;9.33;;
6195;SDS011;3131;42.630;23.382;2023-04-08T02:25:26;17.33;;;10.53;;
6195;SDS011;3131;42.630;23.382;2023-04-08T02:27:55;14.07;;;9.53;;
6195;SDS011;3131;42.630;23.382;2023-04-08T02:30:23;13.50;;;8.87;;
6195;SDS011;3131;42.630;23.382;2023-04-08T02:32:51;16.83;;;8.63;;
6195;SDS011;3131;42.630;23.382;2023-04-08T02:35:20;14.43;;;9.17;;
6195;SDS011;3131;42.630;23.382;2023-04-08T02:37:48;14.73;;;8.67;;
6195;SDS011;3131;42.630;23.382;2023-04-08T02:40:22;16.97;;;9.40;;
6195;SDS011;3131;42.630;23.382;2023-04-08T02:42:50;17.00;;;9.17;;
6195;SDS011;3131;42.630;23.382;2023-04-08T02:45:18;11.73;;;7.23;;
6195;SDS011;3131;42.630;23.382;2023-04-08T02:47:46;15.30;;;10.40;;
6195;SDS011;3131;42.630;23.382;2023-04-08T02:50:14;17.07;;;9.47;;
6195;SDS011;3131;42.630;23.382;2023-04-08T02:52:42;16.47;;;10.13;;
6195;SDS011;3131;42.630;23.382;2023-04-08T02:55:10;17.30;;;9.47;;
6195;SDS011;3131;42.630;23.382;2023-04-08T02:57:38;16.80;;;8.97;;
6195;SDS011;3131;42.630;23.382;2023-04-08T03:00:07;19.57;;;9.60;;
6195;SDS011;3131;42.630;23.382;2023-04-08T03:02:35;14.80;;;9.93;;
6195;SDS011;3131;42.630;23.382;2023-04-08T03:05:04;16.93;;;10.37;;
6195;SDS011;3131;42.630;23.382;2023-04-08T03:07:32;16.27;;;10.63;;
6195;SDS011;3131;42.630;23.382;2023-04-08T03:09:59;13.17;;;9.33;;
6195;SDS011;3131;42.630;23.382;2023-04-08T03:12:27;15.50;;;9.33;;
6195;SDS011;3131;42.630;23.382;2023-04-08T03:14:55;13.77;;;9.23;;
6195;SDS011;3131;42.630;23.382;2023-04-08T03:17:22;17.90;;;10.50;;
6195;SDS011;3131;42.630;23.382;2023-04-08T03:19:50;12.60;;;9.23;;
6195;SDS011;3131;42.630;23.382;2023-04-08T03:22:18;15.00;;;9.67;;
6195;SDS011;3131;42.630;23.382;2023-04-08T03:24:46;16.83;;;10.60;;
6195;SDS011;3131;42.630;23.382;2023-04-08T03:27:14;18.57;;;10.57;;
6195;SDS011;3131;42.630;23.382;2023-04-08T03:29:41;18.63;;;9.90;;
6195;SDS011;3131;42.630;23.382;2023-04-08T03:32:11;19.50;;;9.67;;
6195;SDS011;3131;42.630;23.382;2023-04-08T03:34:38;22.60;;;10.27;;
6195;SDS011;3131;42.630;23.382;2023-04-08T03:37:07;18.67;;;10.37;;
6195;SDS011;3131;42.630;23.382;2023-04-08T03:39:34;15.00;;;10.23;;
6195;SDS011;3131;42.630;23.382;2023-04-08T03:42:02;12.87;;;10.00;;
6195;SDS011;3131;42.630;23.382;2023-04-08T03:44:30;12.50;;;7.93;;
6195;SDS011;3131;42.630;23.382;2023-04-08T03:46:57;14.27;;;10.00;;
6195;SDS011;3131;42.630;23.382;2023-04-08T03:49:25;19.33;;;9.77;;
6195;SDS011;3131;42.630;23.382;2023-04-08T03:51:53;16.53;;;10.50;;
6195;SDS011;3131;42.630;23.382;2023-04-08T03:54:21;14.50;;;9.27;;
6195;SDS011;3131;42.630;23.382;2023-04-08T03:56:50;16.47;;;10.37;;
6195;SDS011;3131;42.630;23.382;2023-04-08T03:59:18;18.10;;;10.33;;
6195;SDS011;3131;42.630;23.382;2023-04-08T04:01:46;15.97;;;10.30;;
6195;SDS011;3131;42.630;23.382;2023-04-08T04:04:14;26.37;;;11.00;;
6195;SDS011;3131;42.630;23.382;2023-04-08T04:06:42;17.43;;;10.53;;
6195;SDS011;3131;42.630;23.382;2023-04-08T04:09:10;18.87;;;10.70;;
6195;SDS011;3131;42.630;23.382;2023-04-08T04:11:37;16.17;;;10.13;;
6195;SDS011;3131;42.630;23.382;2023-04-08T04:14:05;23.10;;;11.53;;
6195;SDS011;3131;42.630;23.382;2023-04-08T04:16:33;18.47;;;11.20;;
6195;SDS011;3131;42.630;23.382;2023-04-08T04:19:01;17.87;;;11.63;;
6195;SDS011;3131;42.630;23.382;2023-04-08T04:21:28;17.53;;;10.83;;
6195;SDS011;3131;42.630;23.382;2023-04-08T04:23:56;28.10;;;10.87;;
6195;SDS011;3131;42.630;23.382;2023-04-08T04:26:24;18.23;;;10.27;;
6195;SDS011;3131;42.630;23.382;2023-04-08T04:28:52;22.83;;;10.23;;
6195;SDS011;3131;42.630;23.382;2023-04-08T04:31:20;21.00;;;10.90;;
6195;SDS011;3131;42.630;23.382;2023-04-08T04:33:48;19.67;;;11.33;;
6195;SDS011;3131;42.630;23.382;2023-04-08T04:36:15;22.30;;;11.93;;
6195;SDS011;3131;42.630;23.382;2023-04-08T04:38:44;21.23;;;11.83;;
6195;SDS011;3131;42.630;23.382;2023-04-08T04:41:11;18.77;;;12.67;;
6195;SDS011;3131;42.630;23.382;2023-04-08T04:43:39;18.77;;;11.43;;
6195;SDS011;3131;42.630;23.382;2023-04-08T04:46:07;20.73;;;12.30;;
6195;SDS011;3131;42.630;23.382;2023-04-08T04:48:34;19.93;;;10.73;;
6195;SDS011;3131;42.630;23.382;2023-04-08T04:51:02;29.40;;;12.40;;
6195;SDS011;3131;42.630;23.382;2023-04-08T04:53:30;24.60;;;11.60;;
6195;SDS011;3131;42.630;23.382;2023-04-08T04:55:58;19.27;;;12.33;;
6195;SDS011;3131;42.630;23.382;2023-04-08T04:58:27;40.67;;;15.40;;
6195;SDS011;3131;42.630;23.382;2023-04-08T05:00:55;24.07;;;13.27;;
6195;SDS011;3131;42.630;23.382;2023-04-08T05:03:22;22.93;;;13.83;;
6195;SDS011;3131;42.630;23.382;2023-04-08T05:05:50;31.37;;;13.40;;
6195;SDS011;3131;42.630;23.382;2023-04-08T05:08:18;29.80;;;14.33;;
6195;SDS011;3131;42.630;23.382;2023-04-08T05:10:46;26.03;;;15.07;;
6195;SDS011;3131;42.630;23.382;2023-04-08T05:13:15;27.57;;;14.30;;
6195;SDS011;3131;42.630;23.382;2023-04-08T05:15:42;29.43;;;13.67;;
6195;SDS011;3131;42.630;23.382;2023-04-08T05:18:12;20.70;;;12.17;;
6195;SDS011;3131;42.630;23.382;2023-04-08T05:20:40;24.10;;;12.47;;
6195;SDS011;3131;42.630;23.382;2023-04-08T05:23:07;25.20;;;13.77;;
6195;SDS011;3131;42.630;23.382;2023-04-08T05:25:35;31.13;;;15.27;;
6195;SDS011;3131;42.630;23.382;2023-04-08T05:28:03;33.43;;;18.07;;
6195;SDS011;3131;42.630;23.382;2023-04-08T05:30:30;33.30;;;17.20;;
6195;SDS011;3131;42.630;23.382;2023-04-08T05:32:58;31.13;;;16.60;;
6195;SDS011;3131;42.630;23.382;2023-04-08T05:35:26;48.10;;;18.37;;
6195;SDS011;3131;42.630;23.382;2023-04-08T05:37:54;36.87;;;16.33;;
6195;SDS011;3131;42.630;23.382;2023-04-08T05:40:22;31.23;;;17.37;;
6195;SDS011;3131;42.630;23.382;2023-04-08T05:42:50;22.43;;;15.17;;
6195;SDS011;3131;42.630;23.382;2023-04-08T05:45:18;20.23;;;12.73;;
6195;SDS011;3131;42.630;23.382;2023-04-08T05:47:46;28.53;;;12.73;;
6195;SDS011;3131;42.630;23.382;2023-04-08T05:50:13;29.37;;;14.17;;
6195;SDS011;3131;42.630;23.382;2023-04-08T05:52:42;26.23;;;14.30;;
6195;SDS011;3131;42.630;23.382;2023-04-08T05:55:10;35.43;;;15.70;;
6195;SDS011;3131;42.630;23.382;2023-04-08T05:57:38;25.03;;;13.40;;
6195;SDS011;3131;42.630;23.382;2023-04-08T06:00:09;28.27;;;14.13;;
6195;SDS011;3131;42.630;23.382;2023-04-08T06:02:37;33.67;;;14.00;;
6195;SDS011;3131;42.630;23.382;2023-04-08T06:05:06;38.83;;;13.77;;
6195;SDS011;3131;42.630;23.382;2023-04-08T06:07:34;24.67;;;12.67;;
6195;SDS011;3131;42.630;23.382;2023-04-08T06:10:01;19.40;;;11.40;;
6195;SDS011;3131;42.630;23.382;2023-04-08T06:12:30;19.43;;;12.00;;
6195;SDS011;3131;42.630;23.382;2023-04-08T06:14:58;15.17;;;11.50;;
6195;SDS011;3131;42.630;23.382;2023-04-08T06:17:25;22.77;;;11.77;;
6195;SDS011;3131;42.630;23.382;2023-04-08T06:19:53;21.77;;;12.20;;
6195;SDS011;3131;42.630;23.382;2023-04-08T06:22:21;23.83;;;11.90;;
6195;SDS011;3131;42.630;23.382;2023-04-08T06:24:49;23.73;;;12.07;;
6195;SDS011;3131;42.630;23.382;2023-04-08T06:27:16;26.53;;;12.93;;
6195;SDS011;3131;42.630;23.382;2023-04-08T06:29:44;37.73;;;14.13;;
6195;SDS011;3131;42.630;23.382;2023-04-08T06:32:12;23.00;;;12.57;;
6195;SDS011;3131;42.630;23.382;2023-04-08T06:34:39;21.57;;;12.47;;
6195;SDS011;3131;42.630;23.382;2023-04-08T06:37:07;21.67;;;12.37;;
6195;SDS011;3131;42.630;23.382;2023-04-08T06:39:35;20.97;;;12.53;;
6195;SDS011;3131;42.630;23.382;2023-04-08T06:42:04;21.40;;;12.43;;
6195;SDS011;3131;42.630;23.382;2023-04-08T06:44:32;28.37;;;13.27;;
6195;SDS011;3131;42.630;23.382;2023-04-08T06:47:00;21.40;;;13.43;;
6195;SDS011;3131;42.630;23.382;2023-04-08T06:49:27;25.43;;;12.87;;
6195;SDS011;3131;42.630;23.382;2023-04-08T06:51:55;21.90;;;12.63;;
6195;SDS011;3131;42.630;23.382;2023-04-08T06:54:23;21.30;;;12.90;;
6195;SDS011;3131;42.630;23.382;2023-04-08T06:56:51;28.90;;;12.97;;
6195;SDS011;3131;42.630;23.382;2023-04-08T06:59:18;20.77;;;12.47;;
6195;SDS011;3131;42.630;23.382;2023-04-08T07:01:46;22.90;;;13.77;;
6195;SDS011;3131;42.630;23.382;2023-04-08T07:04:14;21.73;;;13.00;;
6195;SDS011;3131;42.630;23.382;2023-04-08T07:06:42;21.80;;;12.90;;
6195;SDS011;3131;42.630;23.382;2023-04-08T07:09:10;22.83;;;12.40;;
6195;SDS011;3131;42.630;23.382;2023-04-08T07:11:39;20.57;;;11.97;;
6195;SDS011;3131;42.630;23.382;2023-04-08T07:14:07;19.50;;;12.80;;
6195;SDS011;3131;42.630;23.382;2023-04-08T07:16:35;15.70;;;11.90;;
6195;SDS011;3131;42.630;23.382;2023-04-08T07:19:02;21.73;;;12.20;;
6195;SDS011;3131;42.630;23.382;2023-04-08T07:21:30;20.13;;;12.70;;
6195;SDS011;3131;42.630;23.382;2023-04-08T07:23:58;20.53;;;11.83;;
6195;SDS011;3131;42.630;23.382;2023-04-08T07:26:26;16.70;;;11.23;;
6195;SDS011;3131;42.630;23.382;2023-04-08T07:28:53;20.10;;;11.73;;
6195;SDS011;3131;42.630;23.382;2023-04-08T07:31:21;19.70;;;11.27;;
6195;SDS011;3131;42.630;23.382;2023-04-08T07:33:49;17.20;;;11.97;;
6195;SDS011;3131;42.630;23.382;2023-04-08T07:36:16;22.13;;;12.00;;
6195;SDS011;3131;42.630;23.382;2023-04-08T07:38:44;14.97;;;11.07;;
6195;SDS011;3131;42.630;23.382;2023-04-08T07:41:11;21.60;;;10.63;;
6195;SDS011;3131;42.630;23.382;2023-04-08T07:43:39;15.63;;;10.60;;
6195;SDS011;3131;42.630;23.382;2023-04-08T07:46:07;13.97;;;9.67;;
6195;SDS011;3131;42.630;23.382;2023-04-08T07:48:35;16.53;;;10.70;;
6195;SDS011;3131;42.630;23.382;2023-04-08T07:51:03;25.57;;;10.43;;
6195;SDS011;3131;42.630;23.382;2023-04-08T07:53:31;25.50;;;11.87;;
6195;SDS011;3131;42.630;23.382;2023-04-08T07:55:59;16.40;;;10.43;;
6195;SDS011;3131;42.630;23.382;2023-04-08T07:58:29;23.47;;;10.50;;
6195;SDS011;3131;42.630;23.382;2023-04-08T08:00:57;19.97;;;10.47;;
6195;SDS011;3131;42.630;23.382;2023-04-08T08:03:25;16.27;;;9.40;;
6195;SDS011;3131;42.630;23.382;2023-04-08T08:05:53;17.33;;;10.60;;
6195;SDS011;3131;42.630;23.382;2023-04-08T08:08:21;17.50;;;10.30;;
6195;SDS011;3131;42.630;23.382;2023-04-08T08:10:48;19.80;;;11.77;;
6195;SDS011;3131;42.630;23.382;2023-04-08T08:13:16;20.27;;;11.07;;
6195;SDS011;3131;42.630;23.382;2023-04-08T08:15:45;26.17;;;12.43;;
6195;SDS011;3131;42.630;23.382;2023-04-08T08:18:13;18.73;;;12.00;;
6195;SDS011;3131;42.630;23.382;2023-04-08T08:20:41;21.60;;;12.50;;
6195;SDS011;3131;42.630;23.382;2023-04-08T08:23:09;19.83;;;12.40;;
6195;SDS011;3131;42.630;23.382;2023-04-08T08:25:37;19.23;;;10.90;;
6195;SDS011;3131;42.630;23.382;2023-04-08T08:28:05;15.53;;;10.70;;
6195;SDS011;3131;42.630;23.382;2023-04-08T08:30:32;19.33;;;10.17;;
6195;SDS011;3131;42.630;23.382;2023-04-08T08:33:00;15.97;;;10.70;;
6195;SDS011;3131;42.630;23.382;2023-04-08T08:35:28;22.60;;;11.20;;
6195;SDS011;3131;42.630;23.382;2023-04-08T08:37:55;19.20;;;11.67;;
6195;SDS011;3131;42.630;23.382;2023-04-08T08:40:23;16.20;;;10.83;;
6195;SDS011;3131;42.630;23.382;2023-04-08T08:42:51;20.47;;;11.27;;
6195;SDS011;3131;42.630;23.382;2023-04-08T08:45:19;20.53;;;11.07;;
6195;SDS011;3131;42.630;23.382;2023-04-08T08:47:47;23.17;;;12.73;;
6195;SDS011;3131;42.630;23.382;2023-04-08T08:50:15;24.10;;;12.63;;
6195;SDS011;3131;42.630;23.382;2023-04-08T08:52:47;21.13;;;13.40;;
6195;SDS011;3131;42.630;23.382;2023-04-08T08:55:15;20.83;;;12.90;;
6195;SDS011;3131;42.630;23.382;2023-04-08T08:57:44;25.53;;;14.43;;
6195;SDS011;3131;42.630;23.382;2023-04-08T09:00:13;28.27;;;13.87;;
6195;SDS011;3131;42.630;23.382;2023-04-08T09:02:41;22.93;;;14.27;;
6195;SDS011;3131;42.630;23.382;2023-04-08T09:05:09;24.57;;;14.23;;
6195;SDS011;3131;42.630;23.382;2023-04-08T09:07:37;22.10;;;14.17;;
6195;SDS011;3131;42.630;23.382;2023-04-08T09:10:06;25.63;;;15.77;;
6195;SDS011;3131;42.630;23.382;2023-04-08T09:12:35;22.47;;;13.47;;
6195;SDS011;3131;42.630;23.382;2023-04-08T09:15:06;22.70;;;14.50;;
6195;SDS011;3131;42.630;23.382;2023-04-08T09:17:34;25.23;;;13.40;;
6195;SDS011;3131;42.630;23.382;2023-04-08T09:20:07;25.10;;;13.90;;
6195;SDS011;3131;42.630;23.382;2023-04-08T09:22:54;22.83;;;13.30;;
6195;SDS011;3131;42.630;23.382;2023-04-08T09:25:22;27.03;;;15.20;;
6195;SDS011;3131;42.630;23.382;2023-04-08T09:27:51;24.60;;;13.83;;
6195;SDS011;3131;42.630;23.382;2023-04-08T09:30:20;23.13;;;12.77;;
6195;SDS011;3131;42.630;23.382;2023-04-08T09:32:48;20.30;;;12.57;;
6195;SDS011;3131;42.630;23.382;2023-04-08T09:35:17;18.67;;;11.70;;
6195;SDS011;3131;42.630;23.382;2023-04-08T09:37:45;21.30;;;12.93;;
6195;SDS011;3131;42.630;23.382;2023-04-08T09:40:14;19.53;;;11.37;;
6195;SDS011;3131;42.630;23.382;2023-04-08T09:42:44;22.00;;;11.70;;
6195;SDS011;3131;42.630;23.382;2023-04-08T09:45:13;19.03;;;11.30;;
6195;SDS011;3131;42.630;23.382;2023-04-08T09:47:43;26.90;;;12.03;;
6195;SDS011;3131;42.630;23.382;2023-04-08T09:50:11;18.60;;;11.57;;
6195;SDS011;3131;42.630;23.382;2023-04-08T09:52:41;22.03;;;12.40;;
6195;SDS011;3131;42.630;23.382;2023-04-08T09:55:11;19.43;;;12.83;;
6195;SDS011;3131;42.630;23.382;2023-04-08T09:57:40;20.53;;;12.43;;
6195;SDS011;3131;42.630;23.382;2023-04-08T10:00:09;20.23;;;13.20;;
6195;SDS011;3131;42.630;23.382;2023-04-08T10:02:39;17.80;;;12.07;;
6195;SDS011;3131;42.630;23.382;2023-04-08T10:05:09;22.30;;;12.97;;
6195;SDS011;3131;42.630;23.382;2023-04-08T10:07:37;20.50;;;11.97;;
6195;SDS011;3131;42.630;23.382;2023-04-08T10:10:06;22.60;;;12.60;;
6195;SDS011;3131;42.630;23.382;2023-04-08T10:12:36;22.37;;;12.57;;
6195;SDS011;3131;42.630;23.382;2023-04-08T10:15:23;18.93;;;12.30;;
6195;SDS011;3131;42.630;23.382;2023-04-08T10:17:51;20.77;;;12.93;;
6195;SDS011;3131;42.630;23.382;2023-04-08T10:20:40;20.17;;;11.27;;
6195;SDS011;3131;42.630;23.382;2023-04-08T10:23:08;19.30;;;11.97;;
6195;SDS011;3131;42.630;23.382;2023-04-08T10:25:37;22.07;;;12.40;;
6195;SDS011;3131;42.630;23.382;2023-04-08T10:28:23;18.60;;;11.40;;
6195;SDS011;3131;42.630;23.382;2023-04-08T10:30:50;18.83;;;10.67;;
6195;SDS011;3131;42.630;23.382;2023-04-08T10:33:20;18.57;;;11.53;;
6195;SDS011;3131;42.630;23.382;2023-04-08T10:35:47;19.30;;;10.43;;
6195;SDS011;3131;42.630;23.382;2023-04-08T10:38:16;30.30;;;17.40;;
6195;SDS011;3131;42.630;23.382;2023-04-08T10:40:43;21.70;;;11.87;;
6195;SDS011;3131;42.630;23.382;2023-04-08T10:43:12;29.53;;;13.57;;
6195;SDS011;3131;42.630;23.382;2023-04-08T10:45:39;17.53;;;11.60;;
6195;SDS011;3131;42.630;23.382;2023-04-08T10:48:14;18.10;;;10.00;;
6195;SDS011;3131;42.630;23.382;2023-04-08T10:50:43;19.17;;;11.10;;
6195;SDS011;3131;42.630;23.382;2023-04-08T10:53:10;19.00;;;10.23;;
6195;SDS011;3131;42.630;23.382;2023-04-08T10:55:38;19.93;;;10.97;;
6195;SDS011;3131;42.630;23.382;2023-04-08T10:58:06;16.40;;;10.93;;
6195;SDS011;3131;42.630;23.382;2023-04-08T11:00:34;16.13;;;10.93;;
6195;SDS011;3131;42.630;23.382;2023-04-08T11:03:02;19.03;;;12.13;;
6195;SDS011;3131;42.630;23.382;2023-04-08T11:05:30;18.60;;;9.47;;
6195;SDS011;3131;42.630;23.382;2023-04-08T11:07:58;20.03;;;10.43;;
6195;SDS011;3131;42.630;23.382;2023-04-08T11:10:26;19.73;;;11.70;;
6195;SDS011;3131;42.630;23.382;2023-04-08T11:12:54;15.37;;;10.13;;
6195;SDS011;3131;42.630;23.382;2023-04-08T11:15:22;16.50;;;10.60;;
6195;SDS011;3131;42.630;23.382;2023-04-08T11:17:50;17.10;;;10.70;;
6195;SDS011;3131;42.630;23.382;2023-04-08T11:20:18;18.57;;;10.47;;
6195;SDS011;3131;42.630;23.382;2023-04-08T11:22:47;20.30;;;11.27;;
6195;SDS011;3131;42.630;23.382;2023-04-08T11:25:15;20.07;;;11.03;;
6195;SDS011;3131;42.630;23.382;2023-04-08T11:27:43;23.60;;;11.57;;
6195;SDS011;3131;42.630;23.382;2023-04-08T11:30:11;16.33;;;10.53;;
6195;SDS011;3131;42.630;23.382;2023-04-08T11:32:39;24.97;;;10.87;;
6195;SDS011;3131;42.630;23.382;2023-04-08T11:35:07;19.13;;;10.40;;
6195;SDS011;3131;42.630;23.382;2023-04-08T11:37:38;13.47;;;10.03;;
6195;SDS011;3131;42.630;23.382;2023-04-08T11:40:07;13.43;;;7.83;;
6195;SDS011;3131;42.630;23.382;2023-04-08T11:42:35;19.23;;;10.83;;
6195;SDS011;3131;42.630;23.382;2023-04-08T11:45:08;17.20;;;11.33;;
6195;SDS011;3131;42.630;23.382;2023-04-08T11:47:32;19.97;;;10.73;;
6195;SDS011;3131;42.630;23.382;2023-04-08T11:50:00;13.70;;;10.17;;
6195;SDS011;3131;42.630;23.382;2023-04-08T11:52:40;21.77;;;10.83;;
6195;SDS011;3131;42.630;23.382;2023-04-08T11:55:09;13.50;;;9.70;;
6195;SDS011;3131;42.630;23.382;2023-04-08T11:57:37;17.27;;;10.93;;
6195;SDS011;3131;42.630;23.382;2023-04-08T12:00:06;16.63;;;10.57;;
6195;SDS011;3131;42.630;23.382;2023-04-08T12:02:34;15.30;;;10.03;;
6195;SDS011;3131;42.630;23.382;2023-04-08T12:05:02;14.33;;;8.90;;
6195;SDS011;3131;42.630;23.382;2023-04-08T12:07:30;20.30;;;10.73;;
6195;SDS011;3131;42.630;23.382;2023-04-08T12:09:57;25.57;;;10.33;;
6195;SDS011;3131;42.630;23.382;2023-04-08T12:12:25;14.50;;;9.63;;
6195;SDS011;3131;42.630;23.382;2023-04-08T12:14:53;12.87;;;8.83;;
6195;SDS011;3131;42.630;23.382;2023-04-08T12:17:20;13.10;;;7.67;;
6195;SDS011;3131;42.630;23.382;2023-04-08T12:19:48;13.63;;;8.63;;
6195;SDS011;3131;42.630;23.382;2023-04-08T12:22:15;12.50;;;8.40;;
6195;SDS011;3131;42.630;23.382;2023-04-08T12:24:43;9.37;;;6.77;;
6195;SDS011;3131;42.630;23.382;2023-04-08T12:27:11;8.87;;;6.20;;
6195;SDS011;3131;42.630;23.382;2023-04-08T12:29:38;7.83;;;5.73;;
6195;SDS011;3131;42.630;23.382;2023-04-08T12:32:09;9.67;;;5.97;;
6195;SDS011;3131;42.630;23.382;2023-04-08T12:34:37;7.03;;;5.30;;
6195;SDS011;3131;42.630;23.382;2023-04-08T12:37:04;8.80;;;5.10;;
6195;SDS011;3131;42.630;23.382;2023-04-08T12:39:32;7.33;;;5.23;;
6195;SDS011;3131;42.630;23.382;2023-04-08T12:41:59;9.53;;;5.70;;
6195;SDS011;3131;42.630;23.382;2023-04-08T12:44:27;10.43;;;6.30;;
6195;SDS011;3131;42.630;23.382;2023-04-08T12:46:55;6.07;;;4.93;;
6195;SDS011;3131;42.630;23.382;2023-04-08T12:49:23;8.17;;;6.37;;
6195;SDS011;3131;42.630;23.382;2023-04-08T12:51:51;8.77;;;7.00;;
6195;SDS011;3131;42.630;23.382;2023-04-08T12:54:20;9.40;;;7.00;;
6195;SDS011;3131;42.630;23.382;2023-04-08T12:56:47;12.77;;;7.87;;
6195;SDS011;3131;42.630;23.382;2023-04-08T12:59:15;10.53;;;7.90;;
6195;SDS011;3131;42.630;23.382;2023-04-08T13:01:46;12.90;;;8.20;;
6195;SDS011;3131;42.630;23.382;2023-04-08T13:04:13;15.03;;;8.73;;
6195;SDS011;3131;42.630;23.382;2023-04-08T13:06:41;10.43;;;7.27;;
6195;SDS011;3131;42.630;23.382;2023-04-08T13:09:08;11.13;;;7.97;;
6195;SDS011;3131;42.630;23.382;2023-04-08T13:11:36;16.83;;;8.80;;
6195;SDS011;3131;42.630;23.382;2023-04-08T13:14:03;12.10;;;8.50;;
6195;SDS011;3131;42.630;23.382;2023-04-08T13:16:31;12.67;;;9.10;;
6195;SDS011;3131;42.630;23.382;2023-04-08T13:18:58;14.13;;;8.90;;
6195;SDS011;3131;42.630;23.382;2023-04-08T13:21:26;12.73;;;9.20;;
6195;SDS011;3131;42.630;23.382;2023-04-08T13:23:53;10.87;;;7.10;;
6195;SDS011;3131;42.630;23.382;2023-04-08T13:26:21;9.30;;;6.20;;
6195;SDS011;3131;42.630;23.382;2023-04-08T13:28:49;17.17;;;8.00;;
6195;SDS011;3131;42.630;23.382;2023-04-08T13:31:17;16.57;;;8.77;;
6195;SDS011;3131;42.630;23.382;2023-04-08T13:33:45;11.17;;;7.93;;
6195;SDS011;3131;42.630;23.382;2023-04-08T13:36:13;10.43;;;7.57;;
6195;SDS011;3131;42.630;23.382;2023-04-08T13:38:40;10.97;;;7.10;;
6195;SDS011;3131;42.630;23.382;2023-04-08T13:41:08;12.20;;;7.60;;
6195;SDS011;3131;42.630;23.382;2023-04-08T13:43:36;9.50;;;7.23;;
6195;SDS011;3131;42.630;23.382;2023-04-08T13:46:03;10.93;;;7.63;;
6195;SDS011;3131;42.630;23.382;2023-04-08T13:48:31;11.87;;;7.23;;
6195;SDS011;3131;42.630;23.382;2023-04-08T13:50:59;15.33;;;9.60;;
6195;SDS011;3131;42.630;23.382;2023-04-08T13:53:26;16.93;;;8.87;;
6195;SDS011;3131;42.630;23.382;2023-04-08T13:55:54;12.27;;;8.27;;
6195;SDS011;3131;42.630;23.382;2023-04-08T13:58:23;12.23;;;5.43;;
6195;SDS011;3131;42.630;23.382;2023-04-08T14:00:51;7.80;;;4.30;;
6195;SDS011;3131;42.630;23.382;2023-04-08T14:03:18;5.97;;;4.57;;
6195;SDS011;3131;42.630;23.382;2023-04-08T14:05:46;10.03;;;6.70;;
6195;SDS011;3131;42.630;23.382;2023-04-08T14:08:15;8.57;;;5.60;;
6195;SDS011;3131;42.630;23.382;2023-04-08T14:10:44;9.93;;;6.60;;
6195;SDS011;3131;42.630;23.382;2023-04-08T14:13:13;10.80;;;7.60;;
6195;SDS011;3131;42.630;23.382;2023-04-08T14:15:40;10.33;;;7.00;;
6195;SDS011;3131;42.630;23.382;2023-04-08T14:18:08;12.90;;;7.63;;
6195;SDS011;3131;42.630;23.382;2023-04-08T14:23:22;13.40;;;6.90;;
6195;SDS011;3131;42.630;23.382;2023-04-08T14:25:52;10.43;;;7.40;;
6195;SDS011;3131;42.630;23.382;2023-04-08T14:28:21;10.77;;;6.10;;
6195;SDS011;3131;42.630;23.382;2023-04-08T14:30:50;12.27;;;7.43;;
6195;SDS011;3131;42.630;23.382;2023-04-08T14:35:58;14.53;;;7.53;;
6195;SDS011;3131;42.630;23.382;2023-04-08T14:38:38;13.37;;;7.40;;
6195;SDS011;3131;42.630;23.382;2023-04-08T14:41:07;11.13;;;7.30;;
6195;SDS011;3131;42.630;23.382;2023-04-08T14:43:36;15.13;;;8.47;;
6195;SDS011;3131;42.630;23.382;2023-04-08T14:46:05;10.80;;;7.07;;
6195;SDS011;3131;42.630;23.382;2023-04-08T14:48:34;8.17;;;6.73;;
6195;SDS011;3131;42.630;23.382;2023-04-08T14:51:04;10.57;;;7.47;;
6195;SDS011;3131;42.630;23.382;2023-04-08T14:53:33;15.33;;;8.10;;